»·PEaware :: N1121L KYKM-KGEG

N1121L :: KYKM-KGEG

FLIGHT INFORMATION

Flight Status: Arrived
Operator: Privately registered:
United States
More flights under this callsign
Pilot: Heberto L. (27891)
Aircraft: SOCATA TBM-900
(TBM9)
More flights by this aircraft type
Origin: KYKM Yakima Air Term/Mcallister
United States
Destination: KGEG Spokane Intl
United States
More flights between these airports :: More routes between these airports
Route: +
File this flight plan on PilotEdge
Remarks:
Altitude:
(Current/Filed)
0ft
Speed:
(Current/Filed)
0kts
Departed: 23-Mar-20 08:51 PM
Arrived: 23-Mar-20 09:41 PM
Distance/Time
Traveled:
138nm/0:50
Distance/Time
To Go:
Arrived

Flight Plot

Page will automatically refresh every two minutes.


Map Options




Map Legend


Flown Route
Filed Route
Departure Airport
Arrival Airport
Navaid (VOR, NDB)
Fix

Horizontal Profiles

Position Reports

Time Latitude Longitude Heading Altitude Ground
Speed
23-Mar-20 20:40 46.570324 -120.543518 89 1074ft 0kts
23-Mar-20 20:41 46.570324 -120.543518 89 1074ft 0kts
23-Mar-20 20:42 46.570324 -120.543518 89 1074ft 0kts
23-Mar-20 20:43 46.570324 -120.543518 89 1074ft 0kts
23-Mar-20 20:44 46.570323 -120.543462 95 1074ft 2kts
23-Mar-20 20:45 46.568876 -120.540046 109 1066ft 12kts
23-Mar-20 20:46 46.567791 -120.535772 108 1059ft 16kts
23-Mar-20 20:47 46.566817 -120.531960 111 1052ft 0kts
23-Mar-20 20:48 46.566727 -120.531704 125 1051ft 5kts
23-Mar-20 20:49 46.566507 -120.531511 173 1051ft 0kts
23-Mar-20 20:50 46.568943 -120.545049 288 1141ft 128kts
23-Mar-20 20:51 46.571025 -120.594892 201 2928ft 146kts
23-Mar-20 20:52 46.529746 -120.586269 175 4389ft 159kts
23-Mar-20 20:53 46.477878 -120.577905 180 5346ft 203kts
23-Mar-20 20:54 46.422732 -120.568634 180 7047ft 197kts
23-Mar-20 20:55 46.384602 -120.508922 104 7518ft 264kts
23-Mar-20 20:56 46.367156 -120.399862 105 7504ft 278kts
23-Mar-20 20:57 46.370905 -120.295413 74 7494ft 257kts
23-Mar-20 20:58 46.386692 -120.208706 74 7499ft 253kts
23-Mar-20 20:59 46.404977 -120.108225 74 7507ft 251kts
23-Mar-20 21:00 46.423212 -120.007992 74 7516ft 250kts
23-Mar-20 21:01 46.441349 -119.907513 74 7518ft 251kts
23-Mar-20 21:02 46.460593 -119.807689 63 7471ft 251kts
23-Mar-20 21:03 46.519566 -119.768578 358 7473ft 225kts
23-Mar-20 21:04 46.582889 -119.758355 358 7474ft 225kts
23-Mar-20 21:05 46.645242 -119.748725 358 7474ft 225kts
23-Mar-20 21:06 46.707517 -119.739525 358 7474ft 224kts
23-Mar-20 21:07 46.771314 -119.730619 359 7479ft 248kts
23-Mar-20 21:08 46.843393 -119.719489 0 7462ft 260kts
23-Mar-20 21:09 46.893249 -119.646445 60 7531ft 276kts
23-Mar-20 21:10 46.929281 -119.545510 60 7529ft 277kts
23-Mar-20 21:11 46.965349 -119.443918 60 7530ft 276kts
23-Mar-20 21:12 47.000506 -119.344530 61 7541ft 276kts
23-Mar-20 21:13 47.035842 -119.244284 61 7545ft 275kts
23-Mar-20 21:14 47.071245 -119.143530 61 7545ft 275kts
23-Mar-20 21:15 47.104839 -119.049879 60 7538ft 239kts
23-Mar-20 21:16 47.133868 -118.967258 61 7532ft 213kts
23-Mar-20 21:17 47.160542 -118.890537 61 7527ft 206kts
23-Mar-20 21:18 47.187143 -118.813808 61 7520ft 205kts
23-Mar-20 21:19 47.214553 -118.734471 61 7522ft 219kts
23-Mar-20 21:20 47.243077 -118.651715 61 7519ft 224kts
23-Mar-20 21:21 47.271400 -118.569259 61 7515ft 214kts
23-Mar-20 21:22 47.298988 -118.488692 61 7518ft 209kts
23-Mar-20 21:23 47.326439 -118.408271 61 7519ft 208kts
23-Mar-20 21:24 47.352897 -118.330524 62 7516ft 208kts
23-Mar-20 21:25 47.380010 -118.250598 62 7517ft 212kts
23-Mar-20 21:26 47.408537 -118.166202 62 6749ft 232kts
23-Mar-20 21:27 47.436809 -118.082459 63 5608ft 206kts
23-Mar-20 21:28 47.459880 -118.013734 63 5517ft 192kts
23-Mar-20 21:29 47.486431 -117.934496 63 5498ft 221kts
23-Mar-20 21:30 47.515161 -117.848010 63 4366ft 223kts
23-Mar-20 21:31 47.539830 -117.774703 66 3459ft 156kts
23-Mar-20 21:32 47.554747 -117.729558 67 3565ft 145kts
23-Mar-20 21:33 47.576832 -117.663167 66 3433ft 135kts
23-Mar-20 21:34 47.592624 -117.615048 66 3446ft 149kts
23-Mar-20 21:35 47.603340 -117.565022 84 3345ft 118kts
23-Mar-20 21:36 47.602853 -117.518697 100 3595ft 92kts
23-Mar-20 21:37 47.600970 -117.478656 70 3841ft 102kts
23-Mar-20 21:38 47.620217 -117.484565 246 3674ft 92kts
23-Mar-20 21:39 47.616798 -117.520091 267 2397ft 75kts
23-Mar-20 21:40 47.617956 -117.531584 89 2369ft 14kts
23-Mar-20 21:41 47.618952 -117.528527 88 2367ft 0kts
23-Mar-20 21:42 47.618951 -117.528447 90 2367ft 0kts
23-Mar-20 21:43 47.618951 -117.528448 90 2367ft 0kts
23-Mar-20 21:44 47.618951 -117.528448 90 2367ft 0kts
23-Mar-20 21:45 47.618951 -117.528448 90 2367ft 0kts
23-Mar-20 21:46 47.618951 -117.528448 90 2367ft 0kts
23-Mar-20 21:47 47.618951 -117.528448 90 2367ft 0kts
23-Mar-20 21:48 47.618951 -117.528448 90 2367ft 0kts
23-Mar-20 21:49 47.618951 -117.528448 90 2367ft 0kts
23-Mar-20 21:50 47.618951 -117.528448 90 2367ft 0kts
23-Mar-20 21:51 47.618951 -117.528448 90 2367ft 0kts
23-Mar-20 21:52 47.618951 -117.528448 90 2367ft 0kts
23-Mar-20 21:53 47.618951 -117.528448 90 2367ft 0kts

Navigation Log

Ident Type
Flight plan parsing failed, navigation log unavailable